WI83 weather

St Mary's Kewaunee Area Memorial Hospital Heliport
Kewaunee, Wisconsin, United States

Public forecast

Using degrees Fahrenheit for public forecast. Weather courtesy of forecast.io.

Closest aviation weather report (METAR) to St Mary's Kewaunee Area Memorial Hospital Heliport

Closest report is Manitowoc County Airport, 20.6 nm (38.2 km) SSW. Retrieved 2020/04/09 23:56 UTC (5 minutes ago):

KMTW 092356Z AUTO 33012G21KT 10SM CLR 05/M08 A2975 RMK AO2 SLP078 60004 T00501078 10061 20006 53021

Closest aviation forecast (TAF) to St Mary's Kewaunee Area Memorial Hospital Heliport

Closest forecast is Manitowoc County Airport, 20.6 nm (38.2 km) SSW. Retrieved 2020-04-10 00:30 UTC (0 seconds ago):

TAF KMTW 092329Z 1000/1024 31014G22KT P6SM SCT045 FM100200 31013G21KT P6SM SCT060 FM100800 31010KT P6SM SCT090 FM101500 31010G16KT P6SM SCT045 FM102000 27007KT P6SM SCT150